Time;durP1;ratioP1;P1;durP2;ratioP2;P2;SDS_P1;SDS_P2;PMS_P1;PMS_P2;Temp;Humidity;BMP_temperature;BMP_pressure;BME280_temperature;BME280_humidity;BME280_pressure;Samples;Min_cycle;Max_cycle;Signal;HPM_P1;HPM_P2
2022/07/13 00:00:48;;;;;;;;;;;;;;;19.02;65.37;152433.59;1773791;80;22133;-62
2022/07/13 00:03:16;;;;;;;;;;;;;;;18.99;65.27;152427.05;1773721;80;20169;-63
2022/07/13 00:05:43;;;;;;;;;;;;;;;18.94;65.24;152413.95;1773928;81;20158;-63
2022/07/13 00:08:10;;;;;;;;;;;;;;;18.85;65.32;152390.48;1773737;80;20162;-63
2022/07/13 00:10:38;;;;;;;;;;;;;;;18.80;65.44;152378.72;1773645;79;21068;-63
2022/07/13 00:13:05;;;;;;;;;;;;;;;18.75;65.68;152365.69;1773652;81;21227;-62
2022/07/13 00:15:33;;;;;;;;;;;;;;;18.74;65.80;152363.08;1773544;81;20344;-63
2022/07/13 00:18:00;;;;;;;;;;;;;;;18.70;65.91;152352.64;1773501;80;20561;-62
2022/07/13 00:20:27;;;;;;;;;;;;;;;18.72;65.91;152357.86;1773758;81;20627;-63
2022/07/13 00:22:54;;;;;;;;;;;;;;;18.75;65.57;152365.69;1773797;81;20204;-64
2022/07/13 00:25:21;;;;;;;;;;;;;;;18.70;65.51;152352.64;1773736;80;21197;-63
2022/07/13 00:27:48;;;;;;;;;;;;;;;18.69;65.47;152350.03;1773772;81;20135;-63
2022/07/13 00:30:15;;;;;;;;;;;;;;;18.72;65.18;152357.86;1773706;80;20403;-63
2022/07/13 00:32:42;;;;;;;;;;;;;;;18.67;64.97;152346.09;1773765;80;20380;-63
2022/07/13 00:35:09;;;;;;;;;;;;;;;18.60;64.89;152329.13;1773945;81;20689;-63
2022/07/13 00:37:35;;;;;;;;;;;;;;;18.57;64.93;152320.03;1773618;79;21233;-64
2022/07/13 00:40:05;;;;;;;;;;;;;;;18.53;64.84;152309.55;1773970;81;38422;-63
2022/07/13 00:42:31;;;;;;;;;;;;;;;18.48;64.78;152297.84;1773790;80;20483;-63
2022/07/13 00:44:58;;;;;;;;;;;;;;;18.41;64.84;152280.87;1773879;80;20423;-63
2022/07/13 00:47:28;;;;;;;;;;;;;;;18.36;64.90;152266.50;1774384;79;20446;-63
2022/07/13 00:49:56;;;;;;;;;;;;;;;18.33;64.90;152261.28;1783970;80;21234;-63
2022/07/13 00:52:23;;;;;;;;;;;;;;;18.32;64.76;152258.69;1783772;80;20542;-63
2022/07/13 00:54:50;;;;;;;;;;;;;;;18.28;64.79;152248.25;1784007;80;20165;-63
2022/07/13 00:57:17;;;;;;;;;;;;;;;18.25;64.91;152239.11;1783956;80;20239;-63
2022/07/13 00:59:43;;;;;;;;;;;;;;;18.25;64.84;152239.11;1778037;79;20209;-63
2022/07/13 01:02:12;;;;;;;;;;;;;;;18.22;64.90;152232.56;1783923;80;22008;-64
2022/07/13 01:04:39;;;;;;;;;;;;;;;18.25;64.93;152240.44;1783998;80;20145;-63
2022/07/13 01:07:06;;;;;;;;;;;;;;;18.29;64.62;152249.53;1779069;80;20199;-63
2022/07/13 01:09:33;;;;;;;;;;;;;;;18.28;64.54;152248.25;1783707;80;20180;-64
2022/07/13 01:11:59;;;;;;;;;;;;;;;18.29;64.43;152250.86;1784044;79;20201;-63
2022/07/13 01:14:29;;;;;;;;;;;;;;;18.28;64.49;152246.94;1784185;80;21163;-63
2022/07/13 01:16:56;;;;;;;;;;;;;;;18.30;64.48;152252.14;1784279;80;20133;-63
2022/07/13 01:19:25;;;;;;;;;;;;;;;18.30;64.37;152252.14;1783738;80;20130;-63
2022/07/13 01:21:53;;;;;;;;;;;;;;;18.28;64.46;152246.94;1783959;80;20519;-63
2022/07/13 01:24:20;;;;;;;;;;;;;;;18.29;64.53;152249.53;1783750;80;20121;-62
2022/07/13 01:26:47;;;;;;;;;;;;;;;18.30;64.57;152253.47;1783952;80;21303;-63
2022/07/13 01:29:13;;;;;;;;;;;;;;;18.26;64.65;152243.03;1762172;80;20154;-63
2022/07/13 01:31:41;;;;;;;;;;;;;;;18.24;64.80;152237.83;1783938;80;20134;-64
2022/07/13 01:34:08;;;;;;;;;;;;;;;18.19;64.87;152224.75;1784160;80;20450;-62
2022/07/13 01:36:35;;;;;;;;;;;;;;;18.14;64.81;152211.72;1784010;80;20166;-63
2022/07/13 01:39:03;;;;;;;;;;;;;;;18.09;64.84;152198.69;1783895;80;21192;-63
2022/07/13 01:41:29;;;;;;;;;;;;;;;18.03;64.98;152185.66;1783937;80;20152;-63
2022/07/13 01:43:58;;;;;;;;;;;;;;;18.00;65.19;152177.73;1784310;80;20179;-63
2022/07/13 01:46:25;;;;;;;;;;;;;;;17.99;65.35;152175.13;1784163;80;20190;-64
2022/07/13 01:48:53;;;;;;;;;;;;;;;17.99;65.40;152175.13;1762750;80;20188;-64
2022/07/13 01:51:20;;;;;;;;;;;;;;;18.00;65.56;152176.45;1746850;80;21099;-64
2022/07/13 01:53:47;;;;;;;;;;;;;;;17.99;65.77;152175.13;1746997;82;20498;-63
2022/07/13 01:56:14;;;;;;;;;;;;;;;17.97;66.06;152169.91;1747065;81;20555;-64
2022/07/13 01:58:43;;;;;;;;;;;;;;;17.94;66.20;152162.09;1746835;81;20223;-63
2022/07/13 02:01:10;;;;;;;;;;;;;;;17.92;66.60;152156.88;1746972;82;20209;-63
2022/07/13 02:03:38;;;;;;;;;;;;;;;17.88;66.76;152146.45;1747182;82;21923;-63
2022/07/13 02:06:05;;;;;;;;;;;;;;;17.88;67.02;152146.45;1746963;80;20241;-62
2022/07/13 02:08:32;;;;;;;;;;;;;;;17.87;67.11;152143.84;1746907;82;20197;-62
2022/07/13 02:11:00;;;;;;;;;;;;;;;17.82;67.26;152130.81;1747268;79;20495;-62
2022/07/13 02:13:27;;;;;;;;;;;;;;;17.78;67.61;152120.34;1747046;82;20240;-62
2022/07/13 02:15:53;;;;;;;;;;;;;;;17.80;67.77;152125.61;1747155;80;21226;-63
2022/07/13 02:18:20;;;;;;;;;;;;;;;17.81;67.82;152128.22;1746782;80;20634;-63
2022/07/13 02:20:48;;;;;;;;;;;;;;;17.82;67.85;152132.09;1747443;82;20141;-64
2022/07/13 02:23:15;;;;;;;;;;;;;;;17.82;67.87;152130.81;1747051;81;20201;-63
2022/07/13 02:25:42;;;;;;;;;;;;;;;17.85;67.97;152138.64;1747390;82;20169;-63
2022/07/13 02:28:11;;;;;;;;;;;;;;;17.88;67.92;152146.45;1747460;81;21138;-63
2022/07/13 02:30:38;;;;;;;;;;;;;;;17.90;68.06;152151.67;1747644;80;20133;-63
2022/07/13 02:33:07;;;;;;;;;;;;;;;17.98;68.00;152172.52;1747606;81;20177;-66
2022/07/13 02:35:34;;;;;;;;;;;;;;;18.08;67.91;152197.36;1747466;81;20233;-63
2022/07/13 02:38:02;;;;;;;;;;;;;;;18.16;67.73;152216.92;1747905;82;20422;-64
2022/07/13 02:40:28;;;;;;;;;;;;;;;18.22;67.53;152232.56;1747513;82;21107;-64
2022/07/13 02:42:55;;;;;;;;;;;;;;;18.22;67.46;152231.28;1747313;81;20169;-63
2022/07/13 02:45:22;;;;;;;;;;;;;;;18.21;67.65;152229.97;1747240;81;20209;-63
2022/07/13 02:47:50;;;;;;;;;;;;;;;18.25;67.72;152240.44;1745055;80;20430;-62
2022/07/13 02:50:17;;;;;;;;;;;;;;;18.25;67.72;152239.11;1741274;82;20198;-63
2022/07/13 02:52:44;;;;;;;;;;;;;;;18.27;67.70;152245.66;1741397;82;21115;-63
2022/07/13 02:55:11;;;;;;;;;;;;;;;18.30;67.71;152253.47;1741783;82;20185;-63
2022/07/13 02:57:38;;;;;;;;;;;;;;;18.32;67.72;152258.69;1741143;81;20225;-63
2022/07/13 03:00:07;;;;;;;;;;;;;;;18.35;67.62;152263.91;1740901;82;21018;-63
2022/07/13 03:02:34;;;;;;;;;;;;;;;18.39;67.63;152274.33;1741380;82;20240;-62
2022/07/13 03:05:02;;;;;;;;;;;;;;;18.44;67.41;152287.36;1741169;82;21184;-62
2022/07/13 03:07:29;;;;;;;;;;;;;;;18.48;67.07;152297.84;1740860;82;20219;-63
2022/07/13 03:09:57;;;;;;;;;;;;;;;18.47;66.81;152295.23;1741417;81;20518;-63
2022/07/13 03:12:25;;;;;;;;;;;;;;;18.50;66.73;152301.72;1741249;81;20201;-63
2022/07/13 03:14:53;;;;;;;;;;;;;;;18.54;66.59;152313.48;1741826;82;20180;-63
2022/07/13 03:17:20;;;;;;;;;;;;;;;18.59;66.39;152326.52;1741024;81;22149;-63
2022/07/13 03:19:48;;;;;;;;;;;;;;;18.68;66.12;152347.38;1741497;82;20174;-63
2022/07/13 03:22:15;;;;;;;;;;;;;;;18.76;65.85;152368.30;1778944;80;20157;-63
2022/07/13 03:24:44;;;;;;;;;;;;;;;18.82;65.65;152383.94;1778878;80;20201;-63
2022/07/13 03:27:11;;;;;;;;;;;;;;;18.88;65.51;152399.59;1779093;80;20458;-63
2022/07/13 03:29:38;;;;;;;;;;;;;;;18.95;65.22;152415.28;1778818;79;22112;-63
2022/07/13 03:32:07;;;;;;;;;;;;;;;19.01;65.16;152430.98;1779015;80;20178;-63
2022/07/13 03:34:34;;;;;;;;;;;;;;;19.10;64.82;152454.45;1779037;80;20173;-64
2022/07/13 03:37:01;;;;;;;;;;;;;;;19.17;64.58;152471.44;1779189;80;20129;-63
2022/07/13 03:39:29;;;;;;;;;;;;;;;19.25;64.26;152492.34;1778994;80;20130;-63
2022/07/13 03:41:56;;;;;;;;;;;;;;;19.33;64.06;152511.89;1778952;80;21119;-64
2022/07/13 03:44:23;;;;;;;;;;;;;;;19.42;64.02;152535.42;1778885;80;20166;-63
2022/07/13 03:46:51;;;;;;;;;;;;;;;19.54;63.64;152564.13;1779030;80;20131;-63
2022/07/13 03:49:17;;;;;;;;;;;;;;;19.64;63.36;152590.25;1780283;79;20189;-64
2022/07/13 03:51:46;;;;;;;;;;;;;;;19.76;62.96;152621.56;1773704;80;20435;-63
2022/07/13 03:54:14;;;;;;;;;;;;;;;19.86;62.52;152645.09;1774560;79;21087;-64
2022/07/13 03:56:41;;;;;;;;;;;;;;;19.96;62.45;152671.25;1773665;81;20166;-64
2022/07/13 03:59:09;;;;;;;;;;;;;;;20.09;62.09;152703.89;1774819;79;20134;-63
2022/07/13 04:01:36;;;;;;;;;;;;;;;20.22;61.93;152736.55;1757599;81;20169;-64
2022/07/13 04:04:03;;;;;;;;;;;;;;;20.39;61.52;152778.36;1781246;80;20170;-64
2022/07/13 04:06:30;;;;;;;;;;;;;;;20.56;60.90;152822.78;1782037;80;21062;-63
2022/07/13 04:08:59;;;;;;;;;;;;;;;20.71;60.21;152859.38;1782155;80;20200;-64
2022/07/13 04:11:26;;;;;;;;;;;;;;;20.81;59.62;152885.55;1781429;80;20182;-63
2022/07/13 04:13:53;;;;;;;;;;;;;;;20.95;59.22;152919.53;1781564;80;20189;-64
2022/07/13 04:16:22;;;;;;;;;;;;;;;21.12;58.60;152962.66;1781429;80;20194;-64
2022/07/13 04:18:49;;;;;;;;;;;;;;;21.29;57.97;153005.78;1781584;80;21246;-64
2022/07/13 04:21:16;;;;;;;;;;;;;;;21.43;57.51;153041.06;1782011;80;20193;-64
2022/07/13 04:23:43;;;;;;;;;;;;;;;21.60;56.68;153084.23;1781951;79;20178;-64
2022/07/13 04:26:10;;;;;;;;;;;;;;;21.78;55.75;153128.75;1782244;80;20166;-64
2022/07/13 04:28:38;;;;;;;;;;;;;;;21.95;55.01;153173.16;1782031;80;20182;-64
2022/07/13 04:31:05;;;;;;;;;;;;;;;22.14;53.94;153220.25;1782195;80;21231;-64
2022/07/13 04:33:33;;;;;;;;;;;;;;;22.32;52.78;153267.33;1781979;80;20185;-64
2022/07/13 04:36:00;;;;;;;;;;;;;;;22.50;51.72;153311.88;1775822;79;20166;-64
2022/07/13 04:38:27;;;;;;;;;;;;;;;22.64;50.45;153345.84;1781921;80;20210;-63
2022/07/13 04:40:54;;;;;;;;;;;;;;;22.73;49.74;153369.42;1782260;80;20133;-62
2022/07/13 04:43:21;;;;;;;;;;;;;;;22.81;48.82;153390.34;1782063;80;21129;-63
2022/07/13 04:45:49;;;;;;;;;;;;;;;22.91;48.23;153413.91;1781941;80;20457;-63
2022/07/13 04:48:16;;;;;;;;;;;;;;;22.98;47.95;153433.50;1782270;80;20157;-63
2022/07/13 04:50:43;;;;;;;;;;;;;;;23.09;47.60;153459.69;1773769;80;20482;-64
2022/07/13 04:53:09;;;;;;;;;;;;;;;23.18;47.31;153484.56;1773874;80;20267;-64
2022/07/13 04:55:39;;;;;;;;;;;;;;;23.29;46.92;153510.77;1773917;81;21222;-63
2022/07/13 04:58:07;;;;;;;;;;;;;;;23.39;46.65;153536.97;1746672;82;20150;-63
2022/07/13 05:00:35;;;;;;;;;;;;;;;23.49;46.13;153561.83;1746924;82;20198;-64
2022/07/13 05:03:01;;;;;;;;;;;;;;;23.56;46.05;153578.86;1747219;82;20150;-63
2022/07/13 05:05:31;;;;;;;;;;;;;;;23.64;45.73;153599.78;1746823;82;20178;-63
2022/07/13 05:08:01;;;;;;;;;;;;;;;23.77;45.60;153631.22;1747242;82;21969;-64
2022/07/13 05:10:30;;;;;;;;;;;;;;;23.89;45.23;153663.94;1754082;80;20392;-63
2022/07/13 05:12:56;;;;;;;;;;;;;;;24.02;45.12;153696.72;1750663;80;20158;-64
2022/07/13 05:15:23;;;;;;;;;;;;;;;24.11;44.90;153718.97;1767383;80;20251;-63
2022/07/13 05:17:50;;;;;;;;;;;;;;;24.22;44.82;153746.47;1759767;79;20162;-63
2022/07/13 05:20:17;;;;;;;;;;;;;;;24.41;44.50;153793.56;1746928;80;21176;-63
2022/07/13 05:22:46;;;;;;;;;;;;;;;24.52;44.26;153822.41;1773043;79;20166;-64
2022/07/13 05:25:13;;;;;;;;;;;;;;;24.64;44.04;153851.19;1762643;80;20434;-63
2022/07/13 05:27:40;;;;;;;;;;;;;;;24.78;43.85;153887.94;1796904;78;20508;-62
2022/07/13 05:30:08;;;;;;;;;;;;;;;24.93;43.19;153924.63;1769105;80;20240;-63
2022/07/13 05:32:35;;;;;;;;;;;;;;;25.15;42.35;153980.94;1773966;79;21241;-63
2022/07/13 05:35:03;;;;;;;;;;;;;;;25.32;41.93;154024.20;1771841;80;20954;-63
2022/07/13 05:37:31;;;;;;;;;;;;;;;25.57;41.35;154087.14;1752931;80;20239;-63
2022/07/13 05:39:57;;;;;;;;;;;;;;;25.76;41.03;154134.33;1771791;79;20172;-63
2022/07/13 05:42:25;;;;;;;;;;;;;;;25.87;40.96;154163.14;1761873;80;20192;-63
2022/07/13 05:44:52;;;;;;;;;;;;;;;26.03;40.34;154205.09;1774171;80;21239;-63
2022/07/13 05:47:19;;;;;;;;;;;;;;;26.22;40.12;154251.00;1770226;80;20222;-64
2022/07/13 05:49:46;;;;;;;;;;;;;;;26.42;39.27;154303.44;1777214;80;20399;-63
2022/07/13 05:52:13;;;;;;;;;;;;;;;26.59;38.74;154346.70;1783397;80;20769;-63
2022/07/13 05:54:40;;;;;;;;;;;;;;;26.78;38.47;154393.91;1783296;79;20177;-64
2022/07/13 05:57:07;;;;;;;;;;;;;;;27.00;37.98;154449.03;1784619;80;21803;-63
2022/07/13 05:59:34;;;;;;;;;;;;;;;27.18;37.62;154494.92;1781697;80;20180;-63
2022/07/13 06:02:01;;;;;;;;;;;;;;;27.36;37.48;154539.53;1784074;79;20593;-64
2022/07/13 06:04:28;;;;;;;;;;;;;;;27.58;37.39;154596.02;1777860;79;20489;-63
2022/07/13 06:06:55;;;;;;;;;;;;;;;27.80;37.14;154651.13;1782760;80;20714;-63
2022/07/13 06:09:22;;;;;;;;;;;;;;;27.95;36.64;154690.44;1782457;80;21244;-64
2022/07/13 06:11:49;;;;;;;;;;;;;;;28.11;35.76;154731.16;1779929;79;20131;-64
2022/07/13 06:14:17;;;;;;;;;;;;;;;28.24;35.16;154764.02;1782110;80;20208;-64
2022/07/13 06:16:45;;;;;;;;;;;;;;;28.33;33.75;154785.00;1777641;80;20414;-63
2022/07/13 06:19:11;;;;;;;;;;;;;;;28.29;33.64;154777.12;1717080;81;20193;-63
2022/07/13 06:21:39;;;;;;;;;;;;;;;28.37;33.67;154795.48;1730657;81;20186;-63
2022/07/13 06:24:07;;;;;;;;;;;;;;;28.47;33.51;154821.77;1738416;80;20311;-63
2022/07/13 06:26:34;;;;;;;;;;;;;;;28.55;32.76;154842.75;1783120;80;20149;-64
2022/07/13 06:29:02;;;;;;;;;;;;;;;28.69;32.17;154876.89;1781103;80;20446;-64
2022/07/13 06:31:29;;;;;;;;;;;;;;;28.76;31.59;154895.25;1783228;79;20159;-64
2022/07/13 06:33:56;;;;;;;;;;;;;;;28.78;31.39;154900.50;1779138;80;21127;-64
2022/07/13 06:36:23;;;;;;;;;;;;;;;28.87;30.98;154922.88;1778093;80;20219;-64
2022/07/13 06:38:50;;;;;;;;;;;;;;;29.04;30.74;154966.19;1782424;80;20175;-63
2022/07/13 06:41:17;;;;;;;;;;;;;;;29.20;30.38;155005.59;1778071;80;20858;-63
2022/07/13 06:43:44;;;;;;;;;;;;;;;29.29;30.33;155029.20;1783989;79;20173;-64
2022/07/13 06:46:11;;;;;;;;;;;;;;;29.35;30.37;155045.00;1780565;80;21103;-64
2022/07/13 06:48:38;;;;;;;;;;;;;;;29.41;30.43;155060.78;1779644;80;20143;-64
2022/07/13 06:51:05;;;;;;;;;;;;;;;29.50;30.28;155081.78;1780280;79;20219;-64
2022/07/13 06:53:32;;;;;;;;;;;;;;;29.54;30.21;155093.61;1757801;80;20176;-64
2022/07/13 06:55:58;;;;;;;;;;;;;;;29.65;29.89;155121.19;1793618;79;20158;-65
2022/07/13 06:58:25;;;;;;;;;;;;;;;29.72;29.31;155139.56;1780263;78;21236;-65
2022/07/13 07:00:53;;;;;;;;;;;;;;;29.70;29.22;155134.31;1791463;78;20212;-65
2022/07/13 07:03:20;;;;;;;;;;;;;;;29.76;29.20;155148.78;1785765;79;20483;-65
2022/07/13 07:05:48;;;;;;;;;;;;;;;29.81;28.49;155161.91;1789568;79;20178;-65
2022/07/13 07:08:16;;;;;;;;;;;;;;;29.77;28.30;155150.11;1801608;78;20117;-66
2022/07/13 07:10:43;;;;;;;;;;;;;;;29.77;28.61;155150.11;1780768;79;21818;-65
2022/07/13 07:13:10;;;;;;;;;;;;;;;29.77;28.39;155150.11;1800987;79;20165;-66
2022/07/13 07:15:37;;;;;;;;;;;;;;;29.78;28.76;155152.73;1787024;78;20201;-65
2022/07/13 07:18:04;;;;;;;;;;;;;;;29.80;29.03;155157.98;1796695;79;20165;-65
2022/07/13 07:20:31;;;;;;;;;;;;;;;29.89;28.71;155181.61;1787103;79;20126;-66
2022/07/13 07:22:57;;;;;;;;;;;;;;;29.99;28.30;155207.91;1792398;79;22189;-65
2022/07/13 07:25:24;;;;;;;;;;;;;;;29.99;28.04;155207.91;1802048;79;20225;-65
2022/07/13 07:27:51;;;;;;;;;;;;;;;29.93;28.43;155192.11;1792864;79;20133;-66
2022/07/13 07:30:18;;;;;;;;;;;;;;;29.95;28.42;155197.36;1778003;79;20464;-65
2022/07/13 07:32:45;;;;;;;;;;;;;;;30.00;28.24;155209.19;1777393;78;20574;-65
2022/07/13 07:35:12;;;;;;;;;;;;;;;30.05;27.96;155222.38;1790138;79;21196;-65
2022/07/13 07:37:40;;;;;;;;;;;;;;;30.10;27.37;155234.20;1796163;79;20449;-64
2022/07/13 07:40:08;;;;;;;;;;;;;;;30.15;27.18;155247.33;1785027;79;20177;-65
2022/07/13 07:42:35;;;;;;;;;;;;;;;30.24;27.10;155271.00;1789652;79;20170;-66
2022/07/13 07:45:03;;;;;;;;;;;;;;;30.31;27.03;155288.09;1797494;79;20165;-65
2022/07/13 07:47:31;;;;;;;;;;;;;;;30.36;27.09;155301.22;1797611;79;21116;-65
2022/07/13 07:50:00;;;;;;;;;;;;;;;30.46;26.80;155326.19;1793599;79;20198;-66
2022/07/13 07:52:28;;;;;;;;;;;;;;;30.57;26.43;155355.06;1773949;79;20194;-65
2022/07/13 07:54:55;;;;;;;;;;;;;;;30.52;26.09;155341.94;1776303;79;20141;-66
2022/07/13 07:57:22;;;;;;;;;;;;;;;30.35;26.40;155298.59;1772589;79;20462;-66
2022/07/13 07:59:48;;;;;;;;;;;;;;;30.25;26.39;155273.63;1773608;78;21234;-66
2022/07/13 08:02:16;;;;;;;;;;;;;;;30.09;26.77;155231.58;1772844;79;20189;-66
2022/07/13 08:04:44;;;;;;;;;;;;;;;29.97;27.06;155202.66;1782847;79;20194;-65
2022/07/13 08:07:11;;;;;;;;;;;;;;;29.94;26.95;155194.73;1784006;79;20170;-66
2022/07/13 08:09:40;;;;;;;;;;;;;;;29.90;27.01;155184.23;1783930;79;20457;-67
2022/07/13 08:12:07;;;;;;;;;;;;;;;29.94;27.10;155193.44;1771344;79;21210;-66
2022/07/13 08:14:35;;;;;;;;;;;;;;;29.97;27.00;155202.66;1759109;80;20645;-66
2022/07/13 08:17:02;;;;;;;;;;;;;;;30.04;26.53;155219.75;1753618;80;20172;-66
2022/07/13 08:19:29;;;;;;;;;;;;;;;29.99;26.44;155206.56;1768393;80;21543;-66
2022/07/13 08:21:56;;;;;;;;;;;;;;;29.89;26.42;155181.61;1766530;80;20176;-66
2022/07/13 08:24:23;;;;;;;;;;;;;;;29.80;26.64;155157.98;1760969;79;21307;-66
2022/07/13 08:26:52;;;;;;;;;;;;;;;29.71;26.76;155136.94;1763521;80;20147;-66
2022/07/13 08:29:18;;;;;;;;;;;;;;;29.69;26.79;155131.69;1768904;79;20194;-66
2022/07/13 08:31:46;;;;;;;;;;;;;;;29.71;26.75;155135.66;1782991;79;20501;-64
2022/07/13 08:39:44;;;;;;;;;;;;;;;29.56;26.92;155097.58;1741581;80;20167;-66
2022/07/13 08:42:12;;;;;;;;;;;;;;;29.54;26.82;155093.61;1787502;79;20162;-64
2022/07/13 08:44:39;;;;;;;;;;;;;;;29.67;26.68;155126.44;1778617;79;20230;-64
2022/07/13 08:47:07;;;;;;;;;;;;;;;29.84;26.71;155168.48;1728094;81;20231;-65
2022/07/13 08:49:33;;;;;;;;;;;;;;;29.96;26.55;155200.03;1783983;79;20749;-65
2022/07/13 08:52:00;;;;;;;;;;;;;;;30.00;26.43;155209.19;1773204;80;20892;-64
2022/07/13 08:54:29;;;;;;;;;;;;;;;30.04;25.97;155218.45;1769149;79;20171;-64
2022/07/13 08:56:56;;;;;;;;;;;;;;;30.06;25.74;155225.00;1768784;80;20572;-65
2022/07/13 08:59:23;;;;;;;;;;;;;;;29.99;25.76;155207.91;1772220;79;20216;-63
2022/07/13 09:01:50;;;;;;;;;;;;;;;29.90;25.94;155182.94;1770583;80;21130;-65
2022/07/13 09:04:16;;;;;;;;;;;;;;;29.88;26.07;155180.33;1773173;79;20507;-65
2022/07/13 09:06:47;;;;;;;;;;;;;;;29.96;26.07;155200.03;1771565;80;20206;-65
2022/07/13 09:09:35;;;;;;;;;;;;;;;30.03;25.83;155217.13;1775169;80;20763;-65
2022/07/13 09:12:17;;;;;;;;;;;;;;;30.08;25.60;155228.95;1770803;79;20154;-64
2022/07/13 09:14:54;;;;;;;;;;;;;;;30.17;25.32;155252.58;1766557;79;21234;-64
2022/07/13 09:17:33;;;;;;;;;;;;;;;30.19;25.34;155256.53;1763038;80;20441;-64
2022/07/13 09:20:15;;;;;;;;;;;;;;;30.20;25.45;155259.17;1769218;80;20116;-66
2022/07/13 09:22:51;;;;;;;;;;;;;;;30.20;25.33;155260.50;1771230;80;20417;-65
2022/07/13 09:25:35;;;;;;;;;;;;;;;30.20;25.14;155260.50;1771160;79;20465;-65
2022/07/13 09:28:06;;;;;;;;;;;;;;;30.26;25.09;155274.92;1764444;80;21807;-65
2022/07/13 09:30:34;;;;;;;;;;;;;;;30.32;24.80;155289.38;1767112;80;20273;-65
2022/07/13 09:33:01;;;;;;;;;;;;;;;30.24;24.88;155269.67;1772095;80;20280;-65
2022/07/13 09:35:49;;;;;;;;;;;;;;;30.23;24.97;155267.05;1766539;79;20486;-65
2022/07/13 09:38:30;;;;;;;;;;;;;;;30.21;24.74;155263.13;1773209;80;20434;-64
2022/07/13 09:40:57;;;;;;;;;;;;;;;30.19;24.54;155257.88;1774227;79;21244;-64
2022/07/13 09:46:09;;;;;;;;;;;;;;;30.20;24.43;155259.17;1770745;80;20143;-65
2022/07/13 09:48:37;;;;;;;;;;;;;;;30.13;24.29;155242.08;1771485;80;20181;-65
2022/07/13 09:51:05;;;;;;;;;;;;;;;30.07;24.47;155226.33;1784668;79;20126;-64
2022/07/13 09:53:32;;;;;;;;;;;;;;;30.05;24.45;155221.08;1786027;78;21134;-65
2022/07/13 09:56:00;;;;;;;;;;;;;;;30.01;24.13;155213.20;1790264;78;20271;-64
2022/07/13 09:58:32;;;;;;;;;;;;;;;29.94;24.13;155194.73;1788459;79;20540;-64
2022/07/13 10:00:59;;;;;;;;;;;;;;;29.87;24.23;155176.36;1795415;78;20191;-64
2022/07/13 10:03:28;;;;;;;;;;;;;;;29.90;24.44;155184.23;1791582;79;20180;-64
2022/07/13 10:05:55;;;;;;;;;;;;;;;29.94;24.09;155194.73;1794463;79;21834;-64
2022/07/13 10:08:23;;;;;;;;;;;;;;;29.90;24.29;155184.23;1796835;78;20210;-64
2022/07/13 10:10:50;;;;;;;;;;;;;;;29.90;24.35;155182.94;1787553;79;20208;-64
2022/07/13 10:13:17;;;;;;;;;;;;;;;29.87;24.27;155176.36;1786870;79;21620;-64
2022/07/13 10:15:45;;;;;;;;;;;;;;;29.78;24.26;155154.03;1786467;79;20180;-64
2022/07/13 10:18:20;;;;;;;;;;;;;;;29.74;24.34;155143.53;1795760;78;21329;-63
2022/07/13 10:20:56;;;;;;;;;;;;;;;29.76;24.29;155147.50;1789855;79;20119;-64
2022/07/13 10:23:37;;;;;;;;;;;;;;;29.75;24.38;155144.86;1788077;79;20303;-63
2022/07/13 10:26:06;;;;;;;;;;;;;;;29.71;24.18;155136.94;1790818;79;20179;-64
2022/07/13 10:28:35;;;;;;;;;;;;;;;29.60;24.00;155108.08;1754850;79;20178;-63
2022/07/13 10:31:06;;;;;;;;;;;;;;;29.63;24.10;155114.66;1765099;80;22004;-64
2022/07/13 10:33:33;;;;;;;;;;;;;;;29.73;24.07;155140.91;1755893;81;20174;-64
2022/07/13 10:36:04;;;;;;;;;;;;;;;29.77;24.20;155151.41;1773624;80;20295;-64
2022/07/13 10:38:31;;;;;;;;;;;;;;;29.80;24.13;155157.98;1763894;80;20250;-64
2022/07/13 10:41:16;;;;;;;;;;;;;;;29.84;24.20;155168.48;1748517;81;20225;-64
2022/07/13 10:43:46;;;;;;;;;;;;;;;29.86;24.06;155173.73;1766854;81;21249;-65
2022/07/13 10:46:16;;;;;;;;;;;;;;;29.87;24.31;155176.36;1770607;80;20416;-64
2022/07/13 10:48:43;;;;;;;;;;;;;;;29.89;24.37;155181.61;1768848;81;20636;-64
2022/07/13 10:51:17;;;;;;;;;;;;;;;29.87;24.57;155176.36;1758400;80;20139;-64
2022/07/13 10:53:52;;;;;;;;;;;;;;;29.92;24.64;155189.48;1748003;80;20207;-64
2022/07/13 10:56:19;;;;;;;;;;;;;;;29.99;24.42;155206.56;1785695;79;23042;-65
2022/07/13 10:58:49;;;;;;;;;;;;;;;29.91;24.51;155186.86;1783223;79;20247;-64
2022/07/13 11:01:43;;;;;;;;;;;;;;;29.89;24.61;155181.61;1777918;79;20174;-64
2022/07/13 11:04:10;;;;;;;;;;;;;;;29.91;24.46;155185.56;1779344;79;20195;-64
2022/07/13 11:06:39;;;;;;;;;;;;;;;29.95;24.29;155196.06;1781006;79;20217;-64
2022/07/13 11:09:20;;;;;;;;;;;;;;;29.93;24.46;155190.81;1780534;80;20499;-65
2022/07/13 11:11:53;;;;;;;;;;;;;;;29.98;24.48;155205.28;1782747;80;20467;-64
2022/07/13 11:14:42;;;;;;;;;;;;;;;30.05;24.28;155221.08;1778883;79;20654;-64
2022/07/13 11:17:14;;;;;;;;;;;;;;;30.13;24.07;155242.08;1778414;80;20160;-64
2022/07/13 11:19:52;;;;;;;;;;;;;;;30.27;23.72;155278.88;1781401;80;20190;-64
2022/07/13 11:22:20;;;;;;;;;;;;;;;30.29;23.79;155284.13;1780674;80;20585;-64
2022/07/13 11:25:14;;;;;;;;;;;;;;;30.25;23.96;155272.30;1779310;80;20190;-64
2022/07/13 11:28:00;;;;;;;;;;;;;;;30.23;23.93;155268.38;1783633;79;20498;-64
2022/07/13 11:30:29;;;;;;;;;;;;;;;30.18;24.23;155255.25;1778533;80;20732;-63
2022/07/13 11:32:56;;;;;;;;;;;;;;;30.23;24.35;155268.38;1780746;79;20173;-64
2022/07/13 11:35:23;;;;;;;;;;;;;;;30.29;24.11;155284.13;1785394;79;21213;-64
2022/07/13 11:37:50;;;;;;;;;;;;;;;30.42;23.90;155315.69;1781635;80;20185;-63
2022/07/13 11:40:30;;;;;;;;;;;;;;;30.50;24.02;155335.34;1784662;79;20178;-64
2022/07/13 11:43:00;;;;;;;;;;;;;;;30.59;23.98;155360.31;1782913;80;20167;-64
2022/07/13 11:45:30;;;;;;;;;;;;;;;30.66;23.75;155376.17;1784706;80;20438;-64
2022/07/13 11:48:04;;;;;;;;;;;;;;;30.69;23.66;155384.05;1783313;79;21116;-64
2022/07/13 11:50:43;;;;;;;;;;;;;;;30.76;23.48;155402.44;1785290;80;20169;-64
2022/07/13 11:53:21;;;;;;;;;;;;;;;30.89;23.56;155434.00;1784900;79;20182;-64
2022/07/13 11:55:48;;;;;;;;;;;;;;;30.96;23.35;155453.72;1782141;79;20094;-64
2022/07/13 11:58:31;;;;;;;;;;;;;;;30.85;23.70;155426.13;1794597;79;20162;-64
2022/07/13 12:01:01;;;;;;;;;;;;;;;30.93;23.51;155444.50;1770781;80;21050;-64
2022/07/13 12:03:32;;;;;;;;;;;;;;;31.07;23.62;155481.31;1767351;80;20508;-65
2022/07/13 12:06:11;;;;;;;;;;;;;;;31.20;23.68;155512.88;1768621;81;20132;-65
2022/07/13 12:08:39;;;;;;;;;;;;;;;31.34;23.64;155549.70;1762889;81;20445;-65
2022/07/13 12:11:08;;;;;;;;;;;;;;;31.32;23.58;155544.45;1752819;81;20188;-65
2022/07/13 12:13:36;;;;;;;;;;;;;;;31.31;23.76;155541.81;1761198;81;21930;-64
2022/07/13 12:16:04;;;;;;;;;;;;;;;31.42;23.61;155570.72;1756002;81;20199;-64
2022/07/13 12:18:33;;;;;;;;;;;;;;;31.50;23.60;155589.09;1762911;81;20154;-64
2022/07/13 12:21:00;;;;;;;;;;;;;;;31.46;23.47;155578.59;1757978;81;20157;-64
2022/07/13 12:23:31;;;;;;;;;;;;;;;31.33;23.34;155547.08;1767275;81;20192;-63
2022/07/13 12:26:06;;;;;;;;;;;;;;;31.16;23.42;155504.95;1760233;80;21144;-63
2022/07/13 12:28:33;;;;;;;;;;;;;;;30.98;23.65;155457.63;1763465;80;20155;-64
2022/07/13 12:31:00;;;;;;;;;;;;;;;30.93;23.74;155444.50;1730055;81;20437;-63
2022/07/13 12:33:45;;;;;;;;;;;;;;;30.82;23.92;155418.19;1756512;81;20697;-63
2022/07/13 12:36:12;;;;;;;;;;;;;;;30.76;24.02;155402.44;1751682;81;20130;-64
2022/07/13 12:38:56;;;;;;;;;;;;;;;30.78;23.91;155406.39;1763094;80;21220;-64
2022/07/13 12:41:40;;;;;;;;;;;;;;;30.81;23.84;155415.56;1769081;81;20456;-64
2022/07/13 12:44:05;;;;;;;;;;;;;;;30.86;24.07;155427.41;1758848;81;20200;-65
2022/07/13 12:46:54;;;;;;;;;;;;;;;30.93;23.95;155444.50;1762286;81;20227;-64
2022/07/13 12:49:36;;;;;;;;;;;;;;;30.96;24.09;155452.38;1760761;81;20188;-64
2022/07/13 12:52:06;;;;;;;;;;;;;;;31.01;23.82;155465.50;1744035;80;21143;-65